sensor_id;sensor_type;location;lat;lon;timestamp;pressure;altitude;pressure_sealevel;temperature;humidity
84199;BME280;74337;46.510;6.668;2023-12-20T03:08:11;97206.59;;;4.54;81.89
84199;BME280;74337;46.510;6.668;2023-12-20T03:11:02;97207.66;;;4.53;82.03
84199;BME280;74337;46.510;6.668;2023-12-20T03:13:44;97206.06;;;4.57;81.99
84199;BME280;74337;46.510;6.668;2023-12-20T03:16:50;97191.69;;;4.58;82.09
84199;BME280;74337;46.510;6.668;2023-12-20T03:19:47;97205.50;;;4.55;82.80
84199;BME280;74337;46.510;6.668;2023-12-20T03:22:25;97201.00;;;4.56;82.63
84199;BME280;74337;46.510;6.668;2023-12-20T03:25:21;97205.78;;;4.54;88.34
84199;BME280;74337;46.510;6.668;2023-12-20T03:28:19;97210.56;;;4.52;88.18
84199;BME280;74337;46.510;6.668;2023-12-20T03:31:11;97214.34;;;4.56;87.13
84199;BME280;74337;46.510;6.668;2023-12-20T03:36:58;97214.94;;;4.63;83.11
84199;BME280;74337;46.510;6.668;2023-12-20T03:39:39;97218.19;;;4.65;82.95
84199;BME280;74337;46.510;6.668;2023-12-20T03:42:33;97207.50;;;4.65;82.97
84199;BME280;74337;46.510;6.668;2023-12-20T03:45:10;97210.69;;;4.67;82.84
84199;BME280;74337;46.510;6.668;2023-12-20T03:47:44;97205.38;;;4.67;82.82
84199;BME280;74337;46.510;6.668;2023-12-20T03:50:23;97213.38;;;4.67;82.85
84199;BME280;74337;46.510;6.668;2023-12-20T03:53:04;97215.00;;;4.68;82.97
84199;BME280;74337;46.510;6.668;2023-12-20T03:55:56;97210.69;;;4.67;83.01
84199;BME280;74337;46.510;6.668;2023-12-20T03:58:52;97210.69;;;4.67;83.09
84199;BME280;74337;46.510;6.668;2023-12-20T04:05:07;97216.34;;;4.71;82.99
84199;BME280;74337;46.510;6.668;2023-12-20T04:07:43;97211.56;;;4.73;82.85
84199;BME280;74337;46.510;6.668;2023-12-20T04:10:31;97212.63;;;4.72;83.08
84199;BME280;74337;46.510;6.668;2023-12-20T04:13:15;97207.28;;;4.72;83.00
84199;BME280;74337;46.510;6.668;2023-12-20T04:19:42;97199.03;;;4.73;83.06
84199;BME280;74337;46.510;6.668;2023-12-20T04:25:49;97198.28;;;4.78;82.88
84199;BME280;74337;46.510;6.668;2023-12-20T04:28:43;97192.16;;;4.77;83.10
84199;BME280;74337;46.510;6.668;2023-12-20T04:31:22;97188.66;;;4.77;83.45
84199;BME280;74337;46.510;6.668;2023-12-20T04:34:12;97193.44;;;4.75;83.47
84199;BME280;74337;46.510;6.668;2023-12-20T04:37:07;97195.06;;;4.76;83.57
84199;BME280;74337;46.510;6.668;2023-12-20T04:39:54;97204.13;;;4.75;83.77
84199;BME280;74337;46.510;6.668;2023-12-20T04:42:27;97208.16;;;4.77;83.47
84199;BME280;74337;46.510;6.668;2023-12-20T04:45:26;97211.91;;;4.81;83.50
84199;BME280;74337;46.510;6.668;2023-12-20T04:48:12;97215.31;;;4.77;83.61
84199;BME280;74337;46.510;6.668;2023-12-20T04:50:50;97214.59;;;4.81;83.53
84199;BME280;74337;46.510;6.668;2023-12-20T04:53:44;97215.31;;;4.77;83.59
84199;BME280;74337;46.510;6.668;2023-12-20T04:56:23;97213.28;;;4.84;83.37
84199;BME280;74337;46.510;6.668;2023-12-20T04:59:05;97212.47;;;4.83;83.61
84199;BME280;74337;46.510;6.668;2023-12-20T05:01:47;97216.50;;;4.86;83.56
84199;BME280;74337;46.510;6.668;2023-12-20T05:04:20;97204.47;;;4.83;83.47
84199;BME280;74337;46.510;6.668;2023-12-20T05:07:04;97221.00;;;4.85;83.50
84199;BME280;74337;46.510;6.668;2023-12-20T05:09:36;97222.38;;;4.88;83.30
84199;BME280;74337;46.510;6.668;2023-12-20T05:12:08;97226.13;;;4.87;83.40
84199;BME280;74337;46.510;6.668;2023-12-20T05:14:38;97236.78;;;4.87;83.75
84199;BME280;74337;46.510;6.668;2023-12-20T05:17:12;97230.88;;;4.85;83.99
84199;BME280;74337;46.510;6.668;2023-12-20T05:20:08;97230.84;;;4.80;100.00
84199;BME280;74337;46.510;6.668;2023-12-20T05:23:05;97235.28;;;4.69;100.00
84199;BME280;74337;46.510;6.668;2023-12-20T05:25:46;97229.66;;;4.66;88.48
84199;BME280;74337;46.510;6.668;2023-12-20T05:28:18;97239.59;;;4.75;87.47
84199;BME280;74337;46.510;6.668;2023-12-20T05:30:58;97236.44;;;4.78;86.79
84199;BME280;74337;46.510;6.668;2023-12-20T05:33:37;97231.91;;;4.79;87.38
84199;BME280;74337;46.510;6.668;2023-12-20T05:36:07;97241.28;;;4.81;86.21
84199;BME280;74337;46.510;6.668;2023-12-20T05:42:15;97270.91;;;4.85;85.25
84199;BME280;74337;46.510;6.668;2023-12-20T05:44:58;97276.03;;;4.86;85.13
84199;BME280;74337;46.510;6.668;2023-12-20T05:47:31;97276.81;;;4.87;84.96
84199;BME280;74337;46.510;6.668;2023-12-20T05:50:00;97266.94;;;4.87;85.02
84199;BME280;74337;46.510;6.668;2023-12-20T05:55:12;97255.19;;;4.88;84.93
84199;BME280;74337;46.510;6.668;2023-12-20T05:57:43;97251.75;;;4.88;84.92
84199;BME280;74337;46.510;6.668;2023-12-20T06:00:14;97253.59;;;4.87;84.88
84199;BME280;74337;46.510;6.668;2023-12-20T06:02:46;97261.38;;;4.89;84.88
84199;BME280;74337;46.510;6.668;2023-12-20T06:05:20;97257.88;;;4.88;84.90
84199;BME280;74337;46.510;6.668;2023-12-20T06:07:51;97257.94;;;4.94;84.57
84199;BME280;74337;46.510;6.668;2023-12-20T06:10:31;97267.53;;;4.95;84.51
84199;BME280;74337;46.510;6.668;2023-12-20T06:16:41;97257.94;;;4.94;84.61
84199;BME280;74337;46.510;6.668;2023-12-20T06:19:31;97258.19;;;4.92;84.83
84199;BME280;74337;46.510;6.668;2023-12-20T06:22:00;97260.88;;;4.92;84.66
84199;BME280;74337;46.510;6.668;2023-12-20T06:24:33;97270.47;;;4.93;84.64
84199;BME280;74337;46.510;6.668;2023-12-20T06:27:01;97274.44;;;4.91;84.74
84199;BME280;74337;46.510;6.668;2023-12-20T06:29:32;97274.44;;;4.91;84.79
84199;BME280;74337;46.510;6.668;2023-12-20T06:32:02;97273.38;;;4.92;84.67
84199;BME280;74337;46.510;6.668;2023-12-20T06:34:34;97264.06;;;4.94;84.65
84199;BME280;74337;46.510;6.668;2023-12-20T06:37:03;97268.88;;;4.92;84.93
84199;BME280;74337;46.510;6.668;2023-12-20T06:39:34;97275.00;;;4.93;84.85
84199;BME280;74337;46.510;6.668;2023-12-20T06:42:02;97275.81;;;4.93;84.88
84199;BME280;74337;46.510;6.668;2023-12-20T06:44:35;97273.16;;;4.93;84.89
84199;BME280;74337;46.510;6.668;2023-12-20T06:47:15;97283.56;;;4.95;84.90
84199;BME280;74337;46.510;6.668;2023-12-20T06:49:53;97289.72;;;4.95;84.81
84199;BME280;74337;46.510;6.668;2023-12-20T06:52:25;97280.09;;;4.94;84.85
84199;BME280;74337;46.510;6.668;2023-12-20T06:54:56;97279.84;;;4.96;84.73
84199;BME280;74337;46.510;6.668;2023-12-20T06:57:37;97287.84;;;4.96;84.82
84199;BME280;74337;46.510;6.668;2023-12-20T07:00:11;97283.56;;;4.95;84.82
84199;BME280;74337;46.510;6.668;2023-12-20T07:02:41;97279.56;;;4.92;84.88
84199;BME280;74337;46.510;6.668;2023-12-20T07:05:08;97284.63;;;4.94;84.99
84199;BME280;74337;46.510;6.668;2023-12-20T07:07:37;97283.81;;;4.93;85.03
84199;BME280;74337;46.510;6.668;2023-12-20T07:10:04;97281.09;;;4.88;85.13
84199;BME280;74337;46.510;6.668;2023-12-20T07:12:31;97289.22;;;4.71;86.20
84199;BME280;74337;46.510;6.668;2023-12-20T07:15:05;97288.50;;;4.81;85.89
84199;BME280;74337;46.510;6.668;2023-12-20T07:17:34;97283.03;;;4.93;85.34
84199;BME280;74337;46.510;6.668;2023-12-20T07:20:16;97294.78;;;4.97;85.27
84199;BME280;74337;46.510;6.668;2023-12-20T07:22:46;97296.41;;;4.98;85.22
84199;BME280;74337;46.510;6.668;2023-12-20T07:25:22;97294.28;;;5.00;85.00
84199;BME280;74337;46.510;6.668;2023-12-20T07:27:50;97292.97;;;5.02;84.71
84199;BME280;74337;46.510;6.668;2023-12-20T07:30:18;97299.13;;;5.03;84.95
84199;BME280;74337;46.510;6.668;2023-12-20T07:32:45;97300.19;;;5.02;85.01
84199;BME280;74337;46.510;6.668;2023-12-20T07:35:13;97305.75;;;4.95;85.55
84199;BME280;74337;46.510;6.668;2023-12-20T07:37:46;97312.81;;;4.84;86.12
84199;BME280;74337;46.510;6.668;2023-12-20T07:40:22;97313.94;;;4.67;87.36
84199;BME280;74337;46.510;6.668;2023-12-20T07:42:49;97308.59;;;4.88;86.07
84199;BME280;74337;46.510;6.668;2023-12-20T07:45:16;97316.84;;;4.87;86.40
84199;BME280;74337;46.510;6.668;2023-12-20T07:47:48;97321.78;;;5.00;85.45
84199;BME280;74337;46.510;6.668;2023-12-20T07:50:43;97332.53;;;5.05;85.25
84199;BME280;74337;46.510;6.668;2023-12-20T07:53:13;97337.34;;;5.08;85.04
84199;BME280;74337;46.510;6.668;2023-12-20T07:55:41;97328.03;;;5.11;84.87
84199;BME280;74337;46.510;6.668;2023-12-20T07:58:13;97334.44;;;5.10;85.02
84199;BME280;74337;46.510;6.668;2023-12-20T08:00:50;97334.75;;;5.14;84.96
84199;BME280;74337;46.510;6.668;2023-12-20T08:03:22;97338.22;;;5.14;84.99
84199;BME280;74337;46.510;6.668;2023-12-20T08:05:59;97344.13;;;5.16;84.93
84199;BME280;74337;46.510;6.668;2023-12-20T08:08:32;97338.53;;;5.18;84.96
84199;BME280;74337;46.510;6.668;2023-12-20T08:11:06;97339.09;;;5.20;84.77
84199;BME280;74337;46.510;6.668;2023-12-20T08:13:36;97346.31;;;5.24;84.88
84199;BME280;74337;46.510;6.668;2023-12-20T08:16:07;97341.53;;;5.26;84.58
84199;BME280;74337;46.510;6.668;2023-12-20T08:18:35;97330.91;;;5.31;84.84
84199;BME280;74337;46.510;6.668;2023-12-20T08:21:02;97329.34;;;5.36;84.81
84199;BME280;74337;46.510;6.668;2023-12-20T08:23:34;97330.19;;;5.41;84.82
84199;BME280;74337;46.510;6.668;2023-12-20T08:26:05;97339.00;;;5.42;84.82
84199;BME280;74337;46.510;6.668;2023-12-20T08:28:45;97344.91;;;5.44;84.91
84199;BME280;74337;46.510;6.668;2023-12-20T08:31:20;97353.47;;;5.46;84.78
84199;BME280;74337;46.510;6.668;2023-12-20T08:33:52;97362.31;;;5.46;84.90
84199;BME280;74337;46.510;6.668;2023-12-20T08:36:19;97356.75;;;5.53;84.48
84199;BME280;74337;46.510;6.668;2023-12-20T08:38:47;97358.13;;;5.55;84.59
84199;BME280;74337;46.510;6.668;2023-12-20T08:41:15;97368.53;;;5.57;84.66
84199;BME280;74337;46.510;6.668;2023-12-20T08:43:43;97378.16;;;5.58;84.51
84199;BME280;74337;46.510;6.668;2023-12-20T08:46:10;97371.81;;;5.64;85.12
84199;BME280;74337;46.510;6.668;2023-12-20T08:48:43;97375.59;;;5.68;84.53
84199;BME280;74337;46.510;6.668;2023-12-20T08:51:14;97370.81;;;5.75;84.48
84199;BME280;74337;46.510;6.668;2023-12-20T08:53:43;97379.75;;;5.86;84.81
84199;BME280;74337;46.510;6.668;2023-12-20T08:56:15;97370.94;;;5.91;84.47
84199;BME280;74337;46.510;6.668;2023-12-20T08:58:44;97369.16;;;6.01;84.30
84199;BME280;74337;46.510;6.668;2023-12-20T09:01:15;97374.03;;;6.10;84.25
84199;BME280;74337;46.510;6.668;2023-12-20T09:03:45;97372.22;;;6.15;84.15
84199;BME280;74337;46.510;6.668;2023-12-20T09:06:12;97375.69;;;6.21;85.17
84199;BME280;74337;46.510;6.668;2023-12-20T09:08:40;97369.31;;;6.27;84.33
84199;BME280;74337;46.510;6.668;2023-12-20T09:11:12;97368.03;;;6.35;84.64
84199;BME280;74337;46.510;6.668;2023-12-20T09:13:42;97367.59;;;6.43;84.52
84199;BME280;74337;46.510;6.668;2023-12-20T09:16:21;97374.53;;;6.44;84.28
84199;BME280;74337;46.510;6.668;2023-12-20T09:18:50;97371.13;;;6.54;84.20
84199;BME280;74337;46.510;6.668;2023-12-20T09:21:24;97373.50;;;6.50;86.08
84199;BME280;74337;46.510;6.668;2023-12-20T09:23:53;97375.22;;;6.29;87.01
84199;BME280;74337;46.510;6.668;2023-12-20T09:26:21;97361.63;;;6.36;86.31
84199;BME280;74337;46.510;6.668;2023-12-20T09:28:48;97361.13;;;6.39;86.19
84199;BME280;74337;46.510;6.668;2023-12-20T09:31:18;97365.63;;;6.33;86.09
84199;BME280;74337;46.510;6.668;2023-12-20T09:33:54;97364.50;;;6.24;84.89
84199;BME280;74337;46.510;6.668;2023-12-20T09:36:27;97367.53;;;6.38;85.28
84199;BME280;74337;46.510;6.668;2023-12-20T09:38:56;97362.25;;;6.43;85.76
84199;BME280;74337;46.510;6.668;2023-12-20T09:41:29;97354.22;;;6.48;85.72
84199;BME280;74337;46.510;6.668;2023-12-20T09:44:05;97363.88;;;6.54;85.63
84199;BME280;74337;46.510;6.668;2023-12-20T09:46:43;97366.88;;;6.58;85.53
84199;BME280;74337;46.510;6.668;2023-12-20T09:49:22;97361.81;;;6.61;85.72
84199;BME280;74337;46.510;6.668;2023-12-20T09:51:58;97359.41;;;6.65;84.57
84199;BME280;74337;46.510;6.668;2023-12-20T09:54:37;97357.00;;;6.68;85.04
84199;BME280;74337;46.510;6.668;2023-12-20T09:57:09;97352.22;;;6.81;84.35
84199;BME280;74337;46.510;6.668;2023-12-20T09:59:43;97355.19;;;6.84;84.23
84199;BME280;74337;46.510;6.668;2023-12-20T10:02:20;97350.66;;;6.90;85.12
84199;BME280;74337;46.510;6.668;2023-12-20T10:05:26;97352.28;;;6.91;85.32
84199;BME280;74337;46.510;6.668;2023-12-20T10:07:58;97344.53;;;7.05;84.47
84199;BME280;74337;46.510;6.668;2023-12-20T10:10:30;97352.59;;;7.10;84.23
84199;BME280;74337;46.510;6.668;2023-12-20T10:13:19;97342.72;;;7.26;83.15
84199;BME280;74337;46.510;6.668;2023-12-20T10:15:46;97353.19;;;7.27;83.29
84199;BME280;74337;46.510;6.668;2023-12-20T10:18:20;97346.19;;;7.16;84.30
84199;BME280;74337;46.510;6.668;2023-12-20T10:21:06;97341.91;;;7.20;84.03
84199;BME280;74337;46.510;6.668;2023-12-20T10:23:36;97340.00;;;7.10;84.59
84199;BME280;74337;46.510;6.668;2023-12-20T10:26:03;97346.94;;;7.01;85.66
84199;BME280;74337;46.510;6.668;2023-12-20T10:28:37;97333.03;;;7.04;86.12
84199;BME280;74337;46.510;6.668;2023-12-20T10:31:10;97324.50;;;7.12;85.75
84199;BME280;74337;46.510;6.668;2023-12-20T10:33:45;97317.53;;;7.32;85.36
84199;BME280;74337;46.510;6.668;2023-12-20T10:36:15;97312.47;;;7.46;84.92
84199;BME280;74337;46.510;6.668;2023-12-20T10:38:46;97316.25;;;7.45;85.93
84199;BME280;74337;46.510;6.668;2023-12-20T10:41:32;97314.34;;;7.71;84.86
84199;BME280;74337;46.510;6.668;2023-12-20T10:44:10;97312.47;;;7.81;85.01
84199;BME280;74337;46.510;6.668;2023-12-20T10:46:40;97308.97;;;7.71;84.92
84199;BME280;74337;46.510;6.668;2023-12-20T10:49:17;97296.66;;;7.59;85.16
84199;BME280;74337;46.510;6.668;2023-12-20T10:52:05;97313.81;;;7.58;84.60
84199;BME280;74337;46.510;6.668;2023-12-20T10:54:33;97307.63;;;7.83;84.62
84199;BME280;74337;46.510;6.668;2023-12-20T10:57:06;97302.00;;;7.59;81.69
84199;BME280;74337;46.510;6.668;2023-12-20T10:59:36;97308.94;;;7.14;83.41
84199;BME280;74337;46.510;6.668;2023-12-20T11:02:06;97302.31;;;7.48;85.51
84199;BME280;74337;46.510;6.668;2023-12-20T11:05:14;97294.44;;;8.13;85.55
84199;BME280;74337;46.510;6.668;2023-12-20T11:07:53;97284.03;;;8.86;81.66
84199;BME280;74337;46.510;6.668;2023-12-20T11:10:29;97282.72;;;9.23;81.68
84199;BME280;74337;46.510;6.668;2023-12-20T11:13:22;97286.66;;;9.36;82.06
84199;BME280;74337;46.510;6.668;2023-12-20T11:16:20;97285.19;;;9.49;83.73
84199;BME280;74337;46.510;6.668;2023-12-20T11:19:11;97277.69;;;9.11;82.40
84199;BME280;74337;46.510;6.668;2023-12-20T11:21:51;97279.09;;;8.98;79.21
84199;BME280;74337;46.510;6.668;2023-12-20T11:24:36;97279.03;;;9.09;77.41
84199;BME280;74337;46.510;6.668;2023-12-20T11:27:20;97277.38;;;9.13;77.27
84199;BME280;74337;46.510;6.668;2023-12-20T11:29:59;97278.16;;;9.18;81.38
84199;BME280;74337;46.510;6.668;2023-12-20T11:33:03;97276.91;;;9.06;80.16
84199;BME280;74337;46.510;6.668;2023-12-20T11:35:40;97281.38;;;8.71;80.16
84199;BME280;74337;46.510;6.668;2023-12-20T11:41:36;97274.28;;;8.95;79.38
84199;BME280;74337;46.510;6.668;2023-12-20T11:44:04;97283.19;;;8.86;79.63
84199;BME280;74337;46.510;6.668;2023-12-20T11:47:00;97271.56;;;8.51;82.08
84199;BME280;74337;46.510;6.668;2023-12-20T11:49:55;97266.72;;;8.53;79.36
84199;BME280;74337;46.510;6.668;2023-12-20T11:55:44;97257.53;;;8.64;79.93
84199;BME280;74337;46.510;6.668;2023-12-20T11:58:54;97259.88;;;8.76;79.55
84199;BME280;74337;46.510;6.668;2023-12-20T12:02:11;97245.75;;;9.05;80.62
84199;BME280;74337;46.510;6.668;2023-12-20T12:05:02;97253.28;;;9.03;79.41
84199;BME280;74337;46.510;6.668;2023-12-20T12:07:44;97250.16;;;8.85;79.55
84199;BME280;74337;46.510;6.668;2023-12-20T12:10:16;97245.44;;;8.62;79.50
84199;BME280;74337;46.510;6.668;2023-12-20T12:12:54;97243.25;;;8.74;80.19
84199;BME280;74337;46.510;6.668;2023-12-20T12:15:23;97238.34;;;8.86;79.52
84199;BME280;74337;46.510;6.668;2023-12-20T12:17:59;97242.66;;;8.82;80.32
84199;BME280;74337;46.510;6.668;2023-12-20T12:20:39;97250.06;;;8.51;80.14
84199;BME280;74337;46.510;6.668;2023-12-20T12:23:26;97237.16;;;8.58;80.52
84199;BME280;74337;46.510;6.668;2023-12-20T12:26:12;97239.59;;;8.55;79.40
84199;BME280;74337;46.510;6.668;2023-12-20T12:28:45;97225.22;;;8.30;79.96
84199;BME280;74337;46.510;6.668;2023-12-20T12:31:14;97222.78;;;8.23;80.07
84199;BME280;74337;46.510;6.668;2023-12-20T12:33:48;97236.41;;;8.47;79.46
84199;BME280;74337;46.510;6.668;2023-12-20T12:36:26;97239.53;;;8.65;79.77
84199;BME280;74337;46.510;6.668;2023-12-20T12:39:03;97240.78;;;8.83;79.87
84199;BME280;74337;46.510;6.668;2023-12-20T12:42:02;97248.44;;;9.05;79.61
84199;BME280;74337;46.510;6.668;2023-12-20T12:44:48;97252.41;;;8.68;75.37
84199;BME280;74337;46.510;6.668;2023-12-20T12:47:32;97246.22;;;8.72;79.00
84199;BME280;74337;46.510;6.668;2023-12-20T12:50:02;97241.78;;;8.92;78.04
84199;BME280;74337;46.510;6.668;2023-12-20T12:52:37;97245.56;;;8.91;76.96
84199;BME280;74337;46.510;6.668;2023-12-20T17:59:08;97440.16;;;3.83;72.29
84199;BME280;74337;46.510;6.668;2023-12-20T18:02:13;97438.78;;;3.80;71.97
84199;BME280;74337;46.510;6.668;2023-12-20T18:26:09;97463.22;;;3.60;69.89
84199;BME280;74337;46.510;6.668;2023-12-20T18:35:59;97465.91;;;3.77;72.98
84199;BME280;74337;46.510;6.668;2023-12-20T19:06:45;97490.94;;;3.76;73.79
84199;BME280;74337;46.510;6.668;2023-12-20T20:57:39;97396.34;;;4.07;74.26
84199;BME280;74337;46.510;6.668;2023-12-20T21:00:06;97400.88;;;4.07;74.44
84199;BME280;74337;46.510;6.668;2023-12-20T21:03:09;97399.38;;;4.11;74.55
84199;BME280;74337;46.510;6.668;2023-12-20T21:05:36;97392.66;;;4.08;73.90
84199;BME280;74337;46.510;6.668;2023-12-20T21:17:35;97391.19;;;4.17;74.88
84199;BME280;74337;46.510;6.668;2023-12-20T21:23:54;97377.38;;;4.21;74.94
